createdAt,value
2022-11-14T00:01:42.687Z,6.13
2022-11-14T00:05:02.630Z,6.53
2022-11-14T00:08:27.830Z,6.10
2022-11-14T00:11:48.029Z,5.65
2022-11-14T00:15:08.597Z,6.27
2022-11-14T00:21:48.810Z,5.90
2022-11-14T00:25:09.681Z,6.97
2022-11-14T00:28:30.210Z,6.85
2022-11-14T00:31:50.883Z,6.70
2022-11-14T00:35:10.799Z,6.53
2022-11-14T00:38:31.149Z,6.30
2022-11-14T00:41:51.317Z,6.28
2022-11-14T00:45:12.043Z,6.45
2022-11-14T00:48:32.339Z,6.15
2022-11-14T10:48:21.272Z,7.55
2022-11-14T10:51:50.089Z,7.30
2022-11-14T10:55:18.503Z,7.07
2022-11-14T10:58:48.404Z,6.82
2022-11-14T11:05:30.929Z,7.53
2022-11-14T11:12:50.688Z,6.97
2022-11-14T11:16:11.304Z,7.15
2022-11-14T11:23:22.611Z,6.65
2022-11-14T11:26:43.191Z,6.70
2022-11-14T11:30:06.563Z,7.53
2022-11-14T11:33:32.335Z,6.93
2022-11-14T11:37:19.098Z,6.82
2022-11-14T11:40:41.426Z,7.05
2022-11-14T11:44:05.508Z,7.20
2022-11-14T11:47:29.290Z,6.55
2022-11-14T11:50:50.037Z,7.03
2022-11-14T11:54:12.986Z,7.05
2022-11-14T11:57:43.192Z,6.63
2022-11-14T12:01:03.316Z,7.57
2022-11-14T12:04:23.499Z,6.67
2022-11-14T12:07:43.751Z,8.07
2022-11-14T12:11:06.583Z,7.10
2022-11-14T12:14:55.491Z,7.38
2022-11-14T12:18:30.606Z,6.95
2022-11-14T12:22:03.776Z,6.60
2022-11-14T12:25:32.700Z,7.10
2022-11-14T12:28:59.376Z,6.43
2022-11-14T12:32:32.540Z,6.35
2022-11-14T12:35:59.449Z,6.53
2022-11-14T12:39:26.560Z,6.80
2022-11-14T12:42:48.496Z,6.38
2022-11-14T12:46:11.567Z,6.63
2022-11-14T12:49:38.144Z,6.22
2022-11-14T12:52:58.074Z,6.80
2022-11-14T12:56:33.264Z,6.40
2022-11-14T13:00:02.385Z,6.82
2022-11-14T13:03:48.743Z,5.90
2022-11-14T13:07:50.705Z,6.60
2022-11-14T13:11:50.996Z,6.65
2022-11-14T13:15:49.111Z,6.10
2022-11-14T13:19:46.632Z,7.05
2022-11-14T13:23:25.370Z,6.25
2022-11-14T13:26:46.833Z,6.63
2022-11-14T13:30:08.131Z,6.00
2022-11-14T13:33:41.980Z,6.50
2022-11-14T13:37:25.096Z,6.18
2022-11-14T13:40:51.122Z,5.85
2022-11-14T13:44:42.465Z,6.70
2022-11-14T13:48:36.279Z,7.25
2022-11-14T13:51:56.812Z,7.10
2022-11-14T13:55:32.557Z,6.47
2022-11-14T13:59:20.419Z,6.78
2022-11-14T14:03:11.596Z,7.57
2022-11-14T14:06:56.830Z,7.72
2022-11-14T14:10:19.745Z,7.38
2022-11-14T14:14:19.353Z,7.22
2022-11-14T14:17:51.286Z,7.95
2022-11-14T14:21:17.739Z,7.60
2022-11-14T14:24:54.537Z,7.90
2022-11-14T14:28:46.893Z,7.70
2022-11-14T14:32:19.240Z,7.35
2022-11-14T14:35:40.939Z,7.45
2022-11-14T14:39:28.302Z,7.03
2022-11-14T14:42:49.211Z,6.95
2022-11-14T14:46:09.785Z,7.13
2022-11-14T14:49:38.000Z,7.03
2022-11-14T14:53:00.005Z,7.45
2022-11-14T14:56:22.389Z,6.90
2022-11-14T14:59:42.321Z,7.03
2022-11-14T15:03:02.889Z,6.88
2022-11-14T15:06:31.796Z,7.28
2022-11-14T15:10:00.546Z,6.75
2022-11-14T15:13:20.524Z,6.82
2022-11-14T15:16:41.555Z,6.93
2022-11-14T15:23:21.411Z,7.20
2022-11-14T15:26:47.188Z,6.93
2022-11-14T15:30:20.905Z,7.38
2022-11-14T15:33:41.124Z,7.35
2022-11-14T15:37:10.262Z,6.85
2022-11-14T15:40:35.457Z,6.68
2022-11-14T15:44:02.533Z,7.05
2022-11-14T15:47:25.741Z,7.80
2022-11-14T15:50:50.367Z,7.70
2022-11-14T15:54:31.127Z,8.00
2022-11-14T16:01:26.883Z,7.55
2022-11-14T21:08:41.048Z,5.28
2022-11-14T21:15:20.963Z,5.22
2022-11-14T21:18:43.926Z,5.70
2022-11-14T21:22:07.623Z,5.60
2022-11-14T21:25:27.952Z,5.13
2022-11-14T21:28:50.597Z,5.28
2022-11-14T21:32:10.689Z,4.80
2022-11-14T21:35:32.177Z,4.83
2022-11-14T21:38:52.892Z,4.60
2022-11-14T21:42:17.190Z,4.95
2022-11-14T21:45:38.788Z,4.63
2022-11-14T21:48:58.705Z,4.13
2022-11-14T21:52:18.829Z,4.38
2022-11-14T21:55:38.824Z,4.38
2022-11-14T21:59:13.078Z,4.70
2022-11-14T22:02:52.225Z,4.25
2022-11-14T22:06:12.449Z,4.13
2022-11-14T22:09:33.195Z,4.40
2022-11-14T22:12:53.165Z,4.60
2022-11-14T22:16:17.151Z,5.53
2022-11-14T22:19:37.017Z,5.68
2022-11-14T22:22:57.099Z,5.23
2022-11-14T22:26:17.264Z,5.18
2022-11-14T22:29:37.186Z,4.90
2022-11-14T22:32:59.464Z,4.50
2022-11-14T22:36:25.085Z,4.65
2022-11-14T22:39:44.910Z,4.57
2022-11-14T22:43:04.805Z,4.80
2022-11-14T22:46:25.411Z,3.97
2022-11-14T22:49:45.589Z,4.00
2022-11-14T22:53:05.906Z,4.43
2022-11-14T22:56:28.504Z,4.40
2022-11-14T22:59:48.619Z,4.00
2022-11-14T23:03:08.678Z,3.97
2022-11-14T23:06:31.039Z,4.45
2022-11-14T23:09:51.328Z,4.28
2022-11-14T23:13:12.130Z,4.13
2022-11-14T23:16:33.524Z,4.75
2022-11-14T23:19:53.725Z,4.50
2022-11-14T23:23:14.971Z,3.70
2022-11-14T23:26:34.803Z,3.95
2022-11-14T23:29:54.923Z,3.63
2022-11-14T23:33:14.758Z,3.97
2022-11-14T23:36:34.689Z,3.63
2022-11-14T23:39:54.705Z,3.50
2022-11-14T23:43:14.660Z,3.92
